Terminal Aerodrome Forecast
Issued by NWS Jacksonville, FL

Home | Current Version | Previous Version | Text Only | Print | Product List | Glossary On
Versions: 1 2 3 4 5 6 7 8 9 10 11 12 13 14 15 16 17 18 19 20 21 22 23
878
FTUS42 KJAX 181843 AAB
TAFSSI
TAF AMD
KSSI 181843Z 1819/1918 15009KT P6SM VCTS SCT040CB
      TEMPO 1819/1820 VRB10G20KT 4SM TSRA BKN035CB
     FM182000 14006KT P6SM SCT040
     FM182300 17006KT P6SM FEW250
     FM190800 22005KT P6SM SKC
     FM191700 19007KT P6SM VCTS SCT040CB SCT250=

USA.gov is the U.S. government's official web portal to all federal, state and local government web resources and services.